createdAt,value
2023-03-22T00:01:22.220Z,7.61
2023-03-22T00:03:50.167Z,7.57
2023-03-22T00:06:17.610Z,7.58
2023-03-22T00:08:45.507Z,7.60
2023-03-22T00:11:13.004Z,7.62
2023-03-22T00:13:43.026Z,7.63
2023-03-22T00:16:11.195Z,7.66
2023-03-22T00:18:38.525Z,7.67
2023-03-22T00:21:06.135Z,7.68
2023-03-22T00:23:33.046Z,7.69
2023-03-22T00:25:59.967Z,7.68
2023-03-22T00:28:27.202Z,7.70
2023-03-22T00:31:01.801Z,7.71
2023-03-22T00:33:30.477Z,7.70
2023-03-22T00:36:09.215Z,7.72
2023-03-22T00:38:44.074Z,7.74
2023-03-22T00:41:16.850Z,7.75
2023-03-22T00:43:45.280Z,7.76
2023-03-22T00:46:13.524Z,7.79
2023-03-22T00:48:40.972Z,7.79
2023-03-22T00:51:08.933Z,7.74
2023-03-22T00:53:37.554Z,7.73
2023-03-22T00:56:06.166Z,7.74
2023-03-22T00:58:43.827Z,7.76
2023-03-22T01:01:14.257Z,7.75
2023-03-22T01:03:42.539Z,7.75
2023-03-22T01:06:10.632Z,7.74
2023-03-22T01:08:39.058Z,7.75
2023-03-22T01:11:07.331Z,7.73
2023-03-22T01:13:37.627Z,7.77
2023-03-22T01:16:06.186Z,7.78
2023-03-22T01:18:34.189Z,7.81
2023-03-22T01:21:02.006Z,7.82
2023-03-22T01:23:29.545Z,7.83
2023-03-22T01:25:56.572Z,7.85
2023-03-22T01:28:26.414Z,7.86
2023-03-22T01:30:54.751Z,7.91
2023-03-22T01:33:22.005Z,7.88
2023-03-22T01:35:49.832Z,7.93
2023-03-22T01:38:17.249Z,7.93
2023-03-22T01:40:52.727Z,7.95
2023-03-22T01:43:20.220Z,7.94
2023-03-22T01:45:51.836Z,7.94
2023-03-22T01:48:35.019Z,7.96
2023-03-22T01:51:09.549Z,7.98
2023-03-22T01:53:55.376Z,7.97
2023-03-22T01:56:24.257Z,7.97
2023-03-22T01:58:52.772Z,8.00
2023-03-22T02:01:25.838Z,8.01
2023-03-22T02:04:04.816Z,8.03
2023-03-22T02:06:32.495Z,8.06
2023-03-22T02:09:06.627Z,8.05
2023-03-22T02:11:35.927Z,8.06
2023-03-22T02:14:23.485Z,8.08
2023-03-22T02:17:35.526Z,8.13
2023-03-22T02:20:38.722Z,8.16
2023-03-22T02:23:31.756Z,8.14
2023-03-22T02:26:39.398Z,8.16
2023-03-22T02:29:35.748Z,8.18
2023-03-22T02:32:27.630Z,8.19
2023-03-22T02:35:19.032Z,8.19
2023-03-22T02:38:14.696Z,8.18
2023-03-22T02:40:59.206Z,8.21
2023-03-22T02:43:41.664Z,8.22
2023-03-22T02:46:17.996Z,8.22
2023-03-22T02:49:13.749Z,8.20
2023-03-22T02:51:44.008Z,8.18
2023-03-22T02:54:22.865Z,8.15
2023-03-22T02:56:56.918Z,8.13
2023-03-22T02:59:25.533Z,8.11
2023-03-22T03:01:55.422Z,8.09
2023-03-22T03:04:28.813Z,8.06
2023-03-22T03:07:01.991Z,8.03
2023-03-22T03:09:31.386Z,8.02
2023-03-22T03:12:00.137Z,8.00
2023-03-22T03:14:29.898Z,7.96
2023-03-22T03:17:24.865Z,7.91
2023-03-22T03:20:32.149Z,7.89
2023-03-22T03:23:40.746Z,7.88
2023-03-22T03:26:47.009Z,7.83
2023-03-22T03:29:33.366Z,7.82
2023-03-22T03:32:07.954Z,7.79
2023-03-22T03:34:45.727Z,7.75
2023-03-22T03:37:17.474Z,7.70
2023-03-22T03:39:50.785Z,7.72
2023-03-22T03:42:18.631Z,7.73
2023-03-22T03:44:46.404Z,7.73
2023-03-22T03:47:13.356Z,7.68
2023-03-22T03:49:40.269Z,7.67
2023-03-22T03:52:07.169Z,7.65
2023-03-22T03:54:34.264Z,7.65
2023-03-22T03:57:03.979Z,7.64
2023-03-22T03:59:31.190Z,7.64
2023-03-22T04:02:00.557Z,7.65
2023-03-22T04:04:31.232Z,7.64
2023-03-22T04:07:04.344Z,7.58
2023-03-22T04:09:35.673Z,7.63
2023-03-22T04:12:13.690Z,7.63
2023-03-22T04:14:43.374Z,7.65
2023-03-22T04:17:19.049Z,7.68
2023-03-22T04:19:46.892Z,7.67
2023-03-22T04:22:18.567Z,7.66
2023-03-22T04:24:50.252Z,7.64
2023-03-22T04:27:21.287Z,7.65
2023-03-22T04:29:54.800Z,7.69
2023-03-22T04:32:42.909Z,7.69
2023-03-22T04:35:10.352Z,7.69
2023-03-22T04:37:37.263Z,7.71
2023-03-22T04:40:17.410Z,7.70
2023-03-22T04:42:59.056Z,7.72
2023-03-22T04:45:42.200Z,7.70
2023-03-22T04:48:11.450Z,7.69
2023-03-22T04:50:40.569Z,7.65
2023-03-22T04:53:08.357Z,7.65
2023-03-22T04:55:35.537Z,7.68
2023-03-22T04:58:02.558Z,7.69
2023-03-22T05:00:30.453Z,7.69
2023-03-22T05:02:59.102Z,7.68
2023-03-22T05:05:36.512Z,7.70
2023-03-22T05:08:04.445Z,7.73
2023-03-22T05:10:31.368Z,7.76
2023-03-22T05:12:58.892Z,7.76
2023-03-22T05:15:32.624Z,7.76
2023-03-22T05:18:01.977Z,7.76
2023-03-22T05:20:28.764Z,7.77
2023-03-22T05:23:07.571Z,7.82
2023-03-22T05:25:34.700Z,7.84
2023-03-22T05:28:02.167Z,7.83
2023-03-22T05:30:50.027Z,7.85
2023-03-22T05:33:24.322Z,7.86
2023-03-22T05:35:55.622Z,7.88
2023-03-22T05:38:24.738Z,7.91
2023-03-22T05:40:55.749Z,7.98
2023-03-22T05:43:22.790Z,7.98
2023-03-22T05:45:51.069Z,7.98
2023-03-22T05:48:39.211Z,8.04
2023-03-22T05:51:08.180Z,8.05
2023-03-22T05:53:35.818Z,8.05
2023-03-22T05:56:24.658Z,8.06
2023-03-22T05:59:00.141Z,8.08
2023-03-22T06:01:27.360Z,8.09
2023-03-22T06:04:14.117Z,8.10
2023-03-22T06:06:53.987Z,8.08
2023-03-22T06:09:41.675Z,8.09
2023-03-22T06:12:13.190Z,8.11
2023-03-22T06:14:40.870Z,8.13
2023-03-22T06:17:16.318Z,8.17
2023-03-22T06:19:44.317Z,8.17
2023-03-22T06:22:13.901Z,8.16
2023-03-22T06:24:42.438Z,8.18
2023-03-22T06:27:13.475Z,8.22
2023-03-22T06:29:41.136Z,8.21
2023-03-22T06:32:08.574Z,8.24
2023-03-22T06:34:35.798Z,8.23
2023-03-22T06:37:03.234Z,8.22
2023-03-22T06:39:36.845Z,8.24
2023-03-22T06:42:03.893Z,8.19
2023-03-22T06:44:31.344Z,8.22
2023-03-22T06:47:16.323Z,8.25
2023-03-22T06:49:55.397Z,8.36
2023-03-22T06:52:26.593Z,8.51
2023-03-22T06:54:53.621Z,8.61
2023-03-22T06:57:20.899Z,8.67
2023-03-22T06:59:47.752Z,8.64
2023-03-22T07:02:15.069Z,8.72
2023-03-22T07:04:54.583Z,8.80
2023-03-22T07:07:21.883Z,8.83
2023-03-22T07:09:50.014Z,8.86
2023-03-22T07:12:18.697Z,8.88
2023-03-22T07:14:46.108Z,8.95
2023-03-22T07:17:33.021Z,9.06
2023-03-22T07:20:00.621Z,9.11
2023-03-22T07:22:28.205Z,9.17
2023-03-22T07:24:58.257Z,9.28
2023-03-22T07:27:27.652Z,9.50
2023-03-22T07:29:54.964Z,9.77
2023-03-22T07:32:22.589Z,9.88
2023-03-22T07:34:58.321Z,9.87
2023-03-22T07:37:25.930Z,9.90
2023-03-22T07:39:52.844Z,9.83
2023-03-22T07:42:20.056Z,9.84
2023-03-22T07:45:07.506Z,10.08
2023-03-22T07:47:54.444Z,10.45
2023-03-22T07:50:42.313Z,10.71
2023-03-22T07:53:10.477Z,10.82
2023-03-22T07:55:38.563Z,10.88
2023-03-22T07:58:06.291Z,10.94
2023-03-22T08:00:33.371Z,10.95
2023-03-22T08:03:22.432Z,11.06
2023-03-22T08:06:08.182Z,11.12
2023-03-22T08:08:37.047Z,11.13
2023-03-22T08:11:08.476Z,11.12
2023-03-22T08:13:36.065Z,11.14
2023-03-22T08:16:03.125Z,11.12
2023-03-22T08:18:31.677Z,11.13
2023-03-22T08:21:00.100Z,11.09
2023-03-22T08:23:41.100Z,11.14
2023-03-22T08:26:28.773Z,11.31
2023-03-22T08:29:00.825Z,11.43
2023-03-22T08:31:30.832Z,11.42
2023-03-22T08:33:58.743Z,11.41
2023-03-22T08:36:26.065Z,11.50
2023-03-22T08:38:59.261Z,11.65
2023-03-22T08:41:39.206Z,11.74
2023-03-22T08:44:07.080Z,11.75
2023-03-22T08:46:35.437Z,11.90
2023-03-22T08:49:03.517Z,12.04
2023-03-22T08:51:35.656Z,12.16
2023-03-22T08:54:13.819Z,12.24
2023-03-22T08:57:00.800Z,12.08
2023-03-22T08:59:48.775Z,12.24
2023-03-22T09:02:27.484Z,12.55
2023-03-22T09:04:56.677Z,12.57
2023-03-22T09:07:24.444Z,12.44
2023-03-22T09:10:02.531Z,12.39
2023-03-22T09:12:29.883Z,12.35
2023-03-22T09:14:57.070Z,12.26
2023-03-22T09:17:26.493Z,12.25
2023-03-22T09:20:05.844Z,12.26
2023-03-22T09:22:38.449Z,12.26
2023-03-22T09:25:06.467Z,12.26
2023-03-22T09:27:33.825Z,12.16
2023-03-22T09:30:00.887Z,12.06
2023-03-22T09:32:27.918Z,12.02
2023-03-22T09:34:59.721Z,12.01
2023-03-22T09:37:34.413Z,12.02
2023-03-22T09:40:01.665Z,12.02
2023-03-22T09:42:39.765Z,12.05
2023-03-22T09:45:15.702Z,12.06
2023-03-22T09:47:51.849Z,12.09
2023-03-22T09:50:24.989Z,12.02
2023-03-22T09:52:52.950Z,12.07
2023-03-22T09:55:30.609Z,12.16
2023-03-22T09:58:06.416Z,12.25
2023-03-22T10:00:56.764Z,12.33
2023-03-22T10:03:59.767Z,12.40
2023-03-22T10:06:29.400Z,12.49
2023-03-22T10:09:22.524Z,12.62
2023-03-22T10:12:00.384Z,12.69
2023-03-22T10:14:41.793Z,12.68
2023-03-22T10:17:13.564Z,12.64
2023-03-22T10:20:17.494Z,12.66
2023-03-22T10:22:45.385Z,12.67
2023-03-22T10:25:17.889Z,12.74
2023-03-22T10:27:47.253Z,12.75
2023-03-22T10:30:24.455Z,12.87
2023-03-22T10:33:01.839Z,13.01
2023-03-22T10:35:30.587Z,13.24
2023-03-22T10:38:03.000Z,13.39
2023-03-22T10:40:32.927Z,13.56
2023-03-22T10:43:28.621Z,13.76
2023-03-22T10:45:56.758Z,13.81
2023-03-22T10:48:33.279Z,13.63
2023-03-22T10:51:01.046Z,13.42
2023-03-22T10:53:44.368Z,13.31
2023-03-22T10:56:16.948Z,13.26
2023-03-22T10:58:44.038Z,13.20
2023-03-22T11:01:13.637Z,13.18
2023-03-22T11:03:42.949Z,13.14
2023-03-22T11:06:14.077Z,13.05
2023-03-22T11:08:48.770Z,13.04
2023-03-22T11:11:35.491Z,13.02
2023-03-22T11:14:28.172Z,13.20
2023-03-22T11:17:01.069Z,13.22
2023-03-22T11:19:34.398Z,13.16
2023-03-22T11:22:04.076Z,13.16
2023-03-22T11:24:32.734Z,13.34
2023-03-22T11:27:26.019Z,13.57
2023-03-22T11:29:57.274Z,13.69
2023-03-22T11:32:36.227Z,13.79
2023-03-22T11:35:27.143Z,13.93
2023-03-22T11:37:56.160Z,13.95
2023-03-22T11:40:28.786Z,13.82
2023-03-22T11:43:02.187Z,13.72
2023-03-22T11:45:31.907Z,13.66
2023-03-22T11:48:05.637Z,13.62
2023-03-22T11:50:35.596Z,13.66
2023-03-22T11:53:04.254Z,13.65
2023-03-22T11:55:32.053Z,13.63
2023-03-22T11:57:58.962Z,13.50
2023-03-22T12:00:28.207Z,13.36
2023-03-22T12:03:03.162Z,13.32
2023-03-22T12:05:32.435Z,13.36
2023-03-22T12:08:04.081Z,13.40
2023-03-22T12:10:42.001Z,13.46
2023-03-22T12:13:22.872Z,13.57
2023-03-22T12:15:58.956Z,13.59
2023-03-22T12:18:30.830Z,13.58
2023-03-22T12:20:59.576Z,13.63
2023-03-22T12:23:29.467Z,13.73
2023-03-22T12:26:16.733Z,13.84
2023-03-22T12:29:08.271Z,13.93
2023-03-22T12:31:45.106Z,13.85
2023-03-22T12:34:18.438Z,13.70
2023-03-22T12:36:54.938Z,13.66
2023-03-22T12:39:32.029Z,13.49
2023-03-22T12:42:04.398Z,13.44
2023-03-22T12:44:37.703Z,13.39
2023-03-22T12:47:15.407Z,13.45
2023-03-22T12:49:49.749Z,13.54
2023-03-22T12:52:29.784Z,13.49
2023-03-22T12:55:00.826Z,13.47
2023-03-22T12:57:28.160Z,13.38
2023-03-22T12:59:57.916Z,13.33
2023-03-22T13:02:30.360Z,13.27
2023-03-22T13:05:05.097Z,13.26
2023-03-22T13:07:39.369Z,13.29
2023-03-22T13:10:39.677Z,13.33
2023-03-22T13:13:34.459Z,13.31
2023-03-22T13:16:22.868Z,13.22
2023-03-22T13:19:00.026Z,13.20
2023-03-22T13:21:29.969Z,13.20
2023-03-22T13:24:20.635Z,13.06
2023-03-22T13:26:51.630Z,13.09
2023-03-22T13:29:39.947Z,13.04
2023-03-22T13:32:25.525Z,13.02
2023-03-22T13:34:53.237Z,13.06
2023-03-22T13:37:31.671Z,12.98
2023-03-22T13:40:02.404Z,13.02
2023-03-22T13:42:38.606Z,13.05
2023-03-22T13:45:17.797Z,13.09
2023-03-22T13:47:46.831Z,13.16
2023-03-22T13:50:28.328Z,13.23
2023-03-22T13:53:07.516Z,13.19
2023-03-22T13:55:59.836Z,13.21
2023-03-22T13:58:51.307Z,13.32
2023-03-22T14:01:29.183Z,13.37
2023-03-22T14:04:01.349Z,13.35
2023-03-22T14:06:32.002Z,13.32
2023-03-22T14:09:02.358Z,13.30
2023-03-22T14:11:38.155Z,13.16
2023-03-22T14:14:10.826Z,13.11
2023-03-22T14:16:44.703Z,13.08
2023-03-22T14:19:20.821Z,13.05
